Rovana, California
Current Conditions -  °F | °C
As of 10:56 AM on Thursday 23 Oct 2014 (Local Time) from KBIH Reporting Station
Clear Clear  
Wind Chill: 63°   Ceiling: Unl
Heat Index: 63°   Visibility: 10mi
Dew Point: 27°   Wind: 3mph
Humidity: 26%   Direction: NA
Pressure: 30.14"   Gusts: NA
Location:  37.4772°N, 118.401°W
Report Text: KBIH 231756Z AUTO VRB03KT 10SM CLR 17/M03 A3014 RMK AO2 SLP175 T01721028 10172 20033 50004
Loading
Personal Weather Stations






























Interactive Weather Map
Tropical Storm Tracking
New forecast layout! Learn more

10-Day Weather Forecast

Advertisements
Track Severe Weather on mobile